JST418 YSSY-YBCG
Flight info
| Callsign | JST418 |
|---|---|
| Flight time | N/A |
| Altitude | 37000 |
| Route | OLSEM Y193 BANDA Y43 BERNI |
| Aircraft | A320/M-SDE3FGHIRWY/LB1 |
Departure
| Time | 2026-05-06 12:17 |
|---|---|
| Airport | Sydney Kingsford Smith International Airport (YSSY) |
Arrival
| Time | N/A |
|---|---|
| Airport | Gold Coast Airport (YBCG) |
| Time | Latitude | Longitude | Altitude | Speed | Heading |
|---|---|---|---|---|---|
| 2026-05-06 11:35 | -33.93563 | 151.17759 | 30 ft | 0 kts | 281° |
| 2026-05-06 11:49 | -33.93563 | 151.17760 | 30 ft | 0 kts | 281° |
| 2026-05-06 11:59 | -33.93566 | 151.17774 | 30 ft | 4 kts | 283° |
| 2026-05-06 12:00 | -33.93572 | 151.17805 | 30 ft | 4 kts | 277° |
| 2026-05-06 12:00 | -33.93571 | 151.17829 | 30 ft | 4 kts | 193° |
| 2026-05-06 12:00 | -33.93585 | 151.17826 | 30 ft | 4 kts | 190° |
| 2026-05-06 12:00 | -33.93610 | 151.17820 | 30 ft | 2 kts | 191° |
| 2026-05-06 12:01 | -33.93611 | 151.17820 | 30 ft | 0 kts | 191° |
| 2026-05-06 12:03 | -33.93627 | 151.17817 | 30 ft | 7 kts | 190° |
| 2026-05-06 12:03 | -33.93692 | 151.17799 | 30 ft | 11 kts | 194° |
| 2026-05-06 12:04 | -33.93776 | 151.17773 | 30 ft | 14 kts | 195° |
| 2026-05-06 12:04 | -33.93880 | 151.17773 | 30 ft | 16 kts | 170° |
| 2026-05-06 12:04 | -33.94001 | 151.17805 | 29 ft | 19 kts | 168° |
| 2026-05-06 12:04 | -33.94138 | 151.17839 | 29 ft | 21 kts | 167° |
| 2026-05-06 12:05 | -33.94283 | 151.17878 | 30 ft | 21 kts | 167° |
| 2026-05-06 12:05 | -33.94419 | 151.17912 | 30 ft | 18 kts | 173° |
| 2026-05-06 12:05 | -33.94538 | 151.17887 | 30 ft | 19 kts | 171° |
| 2026-05-06 12:05 | -33.94672 | 151.17920 | 30 ft | 21 kts | 168° |
| 2026-05-06 12:06 | -33.94819 | 151.17958 | 30 ft | 23 kts | 167° |
| 2026-05-06 12:06 | -33.94981 | 151.18001 | 30 ft | 22 kts | 167° |
| 2026-05-06 12:06 | -33.95097 | 151.18069 | 30 ft | 16 kts | 112° |
| 2026-05-06 12:06 | -33.95082 | 151.18203 | 30 ft | 14 kts | 78° |
| 2026-05-06 12:07 | -33.95064 | 151.18306 | 30 ft | 7 kts | 78° |
| 2026-05-06 12:07 | -33.95063 | 151.18309 | 30 ft | 0 kts | 78° |
| 2026-05-06 12:07 | -33.95063 | 151.18310 | 30 ft | 1 kts | 78° |
| 2026-05-06 12:08 | -33.95058 | 151.18340 | 30 ft | 9 kts | 78° |
| 2026-05-06 12:08 | -33.95043 | 151.18448 | 30 ft | 15 kts | 92° |
| 2026-05-06 12:08 | -33.95113 | 151.18541 | 30 ft | 17 kts | 142° |
| 2026-05-06 12:08 | -33.95196 | 151.18631 | 30 ft | 15 kts | 137° |
| 2026-05-06 12:09 | -33.95286 | 151.18704 | 30 ft | 17 kts | 155° |
| 2026-05-06 12:09 | -33.95403 | 151.18742 | 30 ft | 18 kts | 168° |
| 2026-05-06 12:09 | -33.95537 | 151.18776 | 30 ft | 21 kts | 168° |
| 2026-05-06 12:09 | -33.95681 | 151.18814 | 30 ft | 18 kts | 168° |
| 2026-05-06 12:10 | -33.95803 | 151.18845 | 30 ft | 19 kts | 168° |
| 2026-05-06 12:10 | -33.95939 | 151.18879 | 30 ft | 21 kts | 168° |
| 2026-05-06 12:10 | -33.96037 | 151.18906 | 30 ft | 23 kts | 168° |
| 2026-05-06 12:10 | -33.96199 | 151.18947 | 30 ft | 25 kts | 168° |
| 2026-05-06 12:11 | -33.96408 | 151.19001 | 30 ft | 21 kts | 170° |
| 2026-05-06 12:11 | -33.96557 | 151.19041 | 30 ft | 23 kts | 167° |
| 2026-05-06 12:11 | -33.96683 | 151.19072 | 30 ft | 17 kts | 174° |
| 2026-05-06 12:11 | -33.96764 | 151.19067 | 30 ft | 18 kts | 188° |
| 2026-05-06 12:12 | -33.96901 | 151.19085 | 30 ft | 16 kts | 167° |
| 2026-05-06 12:12 | -33.96976 | 151.19105 | 30 ft | 17 kts | 168° |
| 2026-05-06 12:12 | -33.97028 | 151.19119 | 30 ft | 0 kts | 167° |
| 2026-05-06 12:13 | -33.97034 | 151.19120 | 30 ft | 4 kts | 167° |
| 2026-05-06 12:13 | -33.97074 | 151.19131 | 30 ft | 8 kts | 167° |
| 2026-05-06 12:13 | -33.97122 | 151.19176 | 30 ft | 10 kts | 109° |
| 2026-05-06 12:14 | -33.97115 | 151.19260 | 29 ft | 7 kts | 77° |
| 2026-05-06 12:14 | -33.97114 | 151.19265 | 29 ft | 0 kts | 77° |
| 2026-05-06 12:14 | -33.97114 | 151.19267 | 29 ft | 1 kts | 77° |
| 2026-05-06 12:14 | -33.97104 | 151.19320 | 26 ft | 11 kts | 77° |
| 2026-05-06 12:15 | -33.97064 | 151.19373 | 26 ft | 8 kts | 356° |
| 2026-05-06 12:15 | -33.97057 | 151.19371 | 27 ft | 0 kts | 349° |
| 2026-05-06 12:16 | -33.97045 | 151.19368 | 28 ft | 12 kts | 349° |
| 2026-05-06 12:16 | -33.96640 | 151.19263 | 23 ft | 104 kts | 348° |
| 2026-05-06 12:17 | -33.95694 | 151.19018 | 125 ft | 161 kts | 347° |
| 2026-05-06 12:17 | -33.94584 | 151.18796 | 1005 ft | 163 kts | 356° |
| 2026-05-06 12:17 | -33.93466 | 151.18945 | 1958 ft | 158 kts | 13° |
| 2026-05-06 12:17 | -33.92436 | 151.19521 | 2409 ft | 174 kts | 31° |
| 2026-05-06 12:18 | -33.91385 | 151.20449 | 2657 ft | 199 kts | 32° |
| 2026-05-06 12:18 | -33.90189 | 151.21492 | 2940 ft | 225 kts | 32° |
| 2026-05-06 12:18 | -33.88855 | 151.22658 | 3369 ft | 250 kts | 32° |
| 2026-05-06 12:18 | -33.87422 | 151.23911 | 4027 ft | 263 kts | 33° |
| 2026-05-06 12:19 | -33.85921 | 151.25225 | 4912 ft | 269 kts | 33° |
| 2026-05-06 12:19 | -33.84412 | 151.26588 | 5794 ft | 275 kts | 39° |
| 2026-05-06 12:19 | -33.83251 | 151.28470 | 6642 ft | 286 kts | 64° |
| 2026-05-06 12:19 | -33.82623 | 151.30772 | 7477 ft | 291 kts | 71° |
| 2026-05-06 12:20 | -33.82035 | 151.33122 | 8331 ft | 295 kts | 71° |
| 2026-05-06 12:20 | -33.81358 | 151.35464 | 9156 ft | 298 kts | 62° |
| 2026-05-06 12:20 | -33.80281 | 151.37547 | 9960 ft | 298 kts | 48° |
| 2026-05-06 12:20 | -33.78937 | 151.39526 | 10386 ft | 316 kts | 47° |
| 2026-05-06 12:21 | -33.77494 | 151.41647 | 10612 ft | 338 kts | 48° |
| 2026-05-06 12:21 | -33.75985 | 151.43880 | 11153 ft | 347 kts | 48° |
| 2026-05-06 12:21 | -33.74452 | 151.46158 | 11821 ft | 353 kts | 48° |
| 2026-05-06 12:21 | -33.72901 | 151.48460 | 12513 ft | 357 kts | 48° |
| 2026-05-06 12:22 | -33.71331 | 151.50793 | 13206 ft | 361 kts | 48° |
| 2026-05-06 12:22 | -33.69738 | 151.53157 | 13880 ft | 366 kts | 48° |
| 2026-05-06 12:22 | -33.68124 | 151.55550 | 14498 ft | 369 kts | 48° |
| 2026-05-06 12:22 | -33.66504 | 151.57948 | 15118 ft | 372 kts | 48° |
| 2026-05-06 12:23 | -33.64756 | 151.60260 | 15727 ft | 373 kts | 39° |
| 2026-05-06 12:23 | -33.62706 | 151.62159 | 16335 ft | 372 kts | 30° |
| 2026-05-06 12:23 | -33.60560 | 151.63836 | 16958 ft | 375 kts | 30° |
| 2026-05-06 12:23 | -33.58360 | 151.65559 | 17586 ft | 378 kts | 30° |
| 2026-05-06 12:24 | -33.56154 | 151.67292 | 18209 ft | 381 kts | 30° |
| 2026-05-06 12:24 | -33.53918 | 151.69049 | 18776 ft | 384 kts | 30° |
| 2026-05-06 12:24 | -33.51673 | 151.70811 | 19339 ft | 387 kts | 29° |
| 2026-05-06 12:24 | -33.49310 | 151.72380 | 19899 ft | 387 kts | 20° |
| 2026-05-06 12:25 | -33.46780 | 151.73439 | 20465 ft | 386 kts | 11° |
| 2026-05-06 12:25 | -33.44175 | 151.74279 | 21019 ft | 389 kts | 11° |
| 2026-05-06 12:25 | -33.41583 | 151.75112 | 21570 ft | 392 kts | 10° |
| 2026-05-06 12:25 | -33.38933 | 151.75961 | 22098 ft | 395 kts | 10° |
| 2026-05-06 12:26 | -33.36261 | 151.76819 | 22641 ft | 398 kts | 10° |
| 2026-05-06 12:26 | -33.33574 | 151.77685 | 23161 ft | 401 kts | 10° |
| 2026-05-06 12:26 | -33.30870 | 151.78556 | 23665 ft | 404 kts | 10° |
| 2026-05-06 12:26 | -33.28139 | 151.79438 | 24088 ft | 407 kts | 9° |
| 2026-05-06 12:27 | -33.25392 | 151.80326 | 24514 ft | 410 kts | 9° |
| 2026-05-06 12:27 | -33.22624 | 151.81219 | 24942 ft | 412 kts | 9° |
| 2026-05-06 12:27 | -33.19844 | 151.82117 | 25364 ft | 414 kts | 9° |
| 2026-05-06 12:27 | -33.17056 | 151.83023 | 25777 ft | 416 kts | 9° |
| 2026-05-06 12:28 | -33.14284 | 151.83921 | 26179 ft | 418 kts | 8° |
| 2026-05-06 12:28 | -33.11465 | 151.84828 | 26571 ft | 420 kts | 8° |
| 2026-05-06 12:28 | -33.08631 | 151.85737 | 26961 ft | 422 kts | 8° |
| 2026-05-06 12:28 | -33.05786 | 151.86648 | 27351 ft | 424 kts | 8° |
| 2026-05-06 12:29 | -33.02928 | 151.87563 | 27736 ft | 426 kts | 8° |
| 2026-05-06 12:29 | -33.00055 | 151.88481 | 28123 ft | 428 kts | 8° |
| 2026-05-06 12:29 | -32.97165 | 151.89408 | 28512 ft | 430 kts | 8° |
| 2026-05-06 12:29 | -32.94262 | 151.90338 | 28882 ft | 432 kts | 7° |
| 2026-05-06 12:30 | -32.91347 | 151.91273 | 29257 ft | 434 kts | 7° |
| 2026-05-06 12:30 | -32.88417 | 151.92214 | 29626 ft | 436 kts | 7° |
| 2026-05-06 12:30 | -32.85518 | 151.93139 | 29988 ft | 438 kts | 7° |
| 2026-05-06 12:30 | -32.82564 | 151.94079 | 30306 ft | 440 kts | 7° |
| 2026-05-06 12:31 | -32.79593 | 151.95024 | 30591 ft | 442 kts | 7° |
| 2026-05-06 12:31 | -32.76621 | 151.95975 | 30953 ft | 442 kts | 7° |
| 2026-05-06 12:31 | -32.73654 | 151.96928 | 31400 ft | 440 kts | 7° |
| 2026-05-06 12:31 | -32.70693 | 151.97874 | 31829 ft | 439 kts | 7° |
| 2026-05-06 12:32 | -32.67751 | 151.98809 | 32262 ft | 437 kts | 7° |
| 2026-05-06 12:32 | -32.64813 | 151.99743 | 32701 ft | 436 kts | 7° |
| 2026-05-06 12:32 | -32.61885 | 152.00675 | 33144 ft | 435 kts | 7° |
| 2026-05-06 12:32 | -32.58963 | 152.01606 | 33586 ft | 434 kts | 7° |
| 2026-05-06 12:33 | -32.56058 | 152.02527 | 34032 ft | 432 kts | 6° |
| 2026-05-06 12:33 | -32.53179 | 152.03437 | 34418 ft | 431 kts | 6° |
| 2026-05-06 12:33 | -32.50279 | 152.04354 | 34760 ft | 431 kts | 6° |
| 2026-05-06 12:33 | -32.47382 | 152.05268 | 35077 ft | 431 kts | 6° |
| 2026-05-06 12:34 | -32.44489 | 152.06185 | 35387 ft | 431 kts | 6° |
| 2026-05-06 12:34 | -32.41600 | 152.07101 | 35685 ft | 430 kts | 6° |
| 2026-05-06 12:34 | -32.38695 | 152.08024 | 35991 ft | 430 kts | 6° |
| 2026-05-06 12:34 | -32.35793 | 152.08945 | 36289 ft | 430 kts | 5° |
| 2026-05-06 12:35 | -32.32899 | 152.09857 | 36577 ft | 430 kts | 5° |
| 2026-05-06 12:35 | -32.30047 | 152.10756 | 36853 ft | 430 kts | 5° |
| 2026-05-06 12:35 | -32.27147 | 152.11665 | 37042 ft | 431 kts | 5° |
| 2026-05-06 12:35 | -32.24241 | 152.12574 | 37080 ft | 434 kts | 5° |
| 2026-05-06 12:36 | -32.18386 | 152.14425 | 37082 ft | 435 kts | 5° |
| 2026-05-06 12:36 | -32.12523 | 152.16275 | 37080 ft | 435 kts | 5° |
| 2026-05-06 12:37 | -32.06694 | 152.18106 | 37086 ft | 435 kts | 5° |
| 2026-05-06 12:37 | -32.00835 | 152.19939 | 37084 ft | 436 kts | 5° |
| 2026-05-06 12:38 | -31.94959 | 152.21771 | 37091 ft | 436 kts | 5° |
| 2026-05-06 12:38 | -31.89084 | 152.23613 | 37091 ft | 436 kts | 5° |
| 2026-05-06 12:39 | -31.83209 | 152.25456 | 37093 ft | 436 kts | 4° |
| 2026-05-06 12:39 | -31.77370 | 152.27285 | 37091 ft | 436 kts | 4° |
| 2026-05-06 12:40 | -31.71514 | 152.29101 | 37101 ft | 436 kts | 4° |
| 2026-05-06 12:40 | -31.65633 | 152.30924 | 37107 ft | 436 kts | 4° |
| 2026-05-06 12:41 | -31.59763 | 152.32747 | 37107 ft | 436 kts | 4° |
| 2026-05-06 12:41 | -31.53903 | 152.34575 | 37109 ft | 436 kts | 4° |
| 2026-05-06 12:42 | -31.48074 | 152.36390 | 37112 ft | 436 kts | 4° |
| 2026-05-06 12:42 | -31.42204 | 152.38206 | 37110 ft | 436 kts | 3° |
| 2026-05-06 12:43 | -31.36323 | 152.40025 | 37111 ft | 436 kts | 3° |
| 2026-05-06 12:43 | -31.30447 | 152.41834 | 37104 ft | 435 kts | 3° |
| 2026-05-06 12:44 | -31.24621 | 152.43628 | 37113 ft | 436 kts | 3° |
| 2026-05-06 12:44 | -31.18742 | 152.45437 | 37116 ft | 436 kts | 3° |
| 2026-05-06 12:45 | -31.12865 | 152.47250 | 37115 ft | 436 kts | 3° |
| 2026-05-06 12:46 | -31.04099 | 152.49941 | 37113 ft | 436 kts | 2° |